sensor_id;sensor_type;location;lat;lon;timestamp;P1;durP1;ratioP1;P2;durP2;ratioP2
9270;SDS011;4673;53.458;9.940;2022-12-07T00:00:27;13.07;;;12.97;;
9270;SDS011;4673;53.458;9.940;2022-12-07T00:02:53;13.17;;;13.07;;
9270;SDS011;4673;53.458;9.940;2022-12-07T00:05:18;13.97;;;13.87;;
9270;SDS011;4673;53.458;9.940;2022-12-07T00:07:44;13.80;;;13.70;;
9270;SDS011;4673;53.458;9.940;2022-12-07T00:10:10;13.47;;;13.37;;
9270;SDS011;4673;53.458;9.940;2022-12-07T00:12:35;12.73;;;12.63;;
9270;SDS011;4673;53.458;9.940;2022-12-07T01:49:20;8.77;;;8.77;;
9270;SDS011;4673;53.458;9.940;2022-12-07T01:51:58;7.90;;;7.90;;
9270;SDS011;4673;53.458;9.940;2022-12-07T01:54:46;7.77;;;7.77;;
9270;SDS011;4673;53.458;9.940;2022-12-07T01:57:14;7.87;;;7.87;;
9270;SDS011;4673;53.458;9.940;2022-12-07T01:59:42;7.60;;;7.60;;
9270;SDS011;4673;53.458;9.940;2022-12-07T02:02:11;6.60;;;6.60;;
9270;SDS011;4673;53.458;9.940;2022-12-07T02:04:48;7.63;;;7.63;;
9270;SDS011;4673;53.458;9.940;2022-12-07T02:07:15;8.30;;;8.27;;
9270;SDS011;4673;53.458;9.940;2022-12-07T02:09:41;7.20;;;7.20;;
9270;SDS011;4673;53.458;9.940;2022-12-07T02:12:07;7.57;;;7.57;;
9270;SDS011;4673;53.458;9.940;2022-12-07T02:14:33;8.07;;;8.07;;
9270;SDS011;4673;53.458;9.940;2022-12-07T02:17:07;8.10;;;8.10;;
9270;SDS011;4673;53.458;9.940;2022-12-07T02:27:46;7.13;;;7.13;;
9270;SDS011;4673;53.458;9.940;2022-12-07T02:30:19;6.67;;;6.67;;
9270;SDS011;4673;53.458;9.940;2022-12-07T02:35:39;5.90;;;5.90;;
9270;SDS011;4673;53.458;9.940;2022-12-07T02:38:31;5.73;;;5.73;;
9270;SDS011;4673;53.458;9.940;2022-12-07T02:41:06;5.77;;;5.77;;
9270;SDS011;4673;53.458;9.940;2022-12-07T02:43:53;5.27;;;5.27;;
9270;SDS011;4673;53.458;9.940;2022-12-07T02:46:23;5.10;;;5.10;;
9270;SDS011;4673;53.458;9.940;2022-12-07T02:48:54;4.87;;;4.87;;
9270;SDS011;4673;53.458;9.940;2022-12-07T02:51:21;4.43;;;4.43;;
9270;SDS011;4673;53.458;9.940;2022-12-07T02:53:47;4.70;;;4.70;;
9270;SDS011;4673;53.458;9.940;2022-12-07T02:59:17;4.33;;;4.33;;
9270;SDS011;4673;53.458;9.940;2022-12-07T03:02:28;4.00;;;4.00;;
9270;SDS011;4673;53.458;9.940;2022-12-07T03:10:53;3.97;;;3.97;;
9270;SDS011;4673;53.458;9.940;2022-12-07T03:18:55;4.33;;;4.33;;
9270;SDS011;4673;53.458;9.940;2022-12-07T03:21:32;3.47;;;3.47;;
9270;SDS011;4673;53.458;9.940;2022-12-07T03:24:14;3.67;;;3.67;;
9270;SDS011;4673;53.458;9.940;2022-12-07T03:26:47;2.90;;;2.90;;
9270;SDS011;4673;53.458;9.940;2022-12-07T03:29:21;3.30;;;3.30;;
9270;SDS011;4673;53.458;9.940;2022-12-07T03:32:01;3.23;;;3.23;;
9270;SDS011;4673;53.458;9.940;2022-12-07T03:34:40;3.30;;;3.30;;
9270;SDS011;4673;53.458;9.940;2022-12-07T03:37:37;3.07;;;3.07;;
9270;SDS011;4673;53.458;9.940;2022-12-07T03:42:47;2.77;;;2.77;;
9270;SDS011;4673;53.458;9.940;2022-12-07T03:45:15;2.87;;;2.87;;
9270;SDS011;4673;53.458;9.940;2022-12-07T03:50:44;2.80;;;2.80;;
9270;SDS011;4673;53.458;9.940;2022-12-07T03:53:52;3.17;;;3.17;;
9270;SDS011;4673;53.458;9.940;2022-12-07T03:56:23;2.90;;;2.90;;
9270;SDS011;4673;53.458;9.940;2022-12-07T03:58:51;1.97;;;1.97;;
9270;SDS011;4673;53.458;9.940;2022-12-07T04:01:18;2.63;;;2.63;;
9270;SDS011;4673;53.458;9.940;2022-12-07T04:03:44;2.57;;;2.57;;
9270;SDS011;4673;53.458;9.940;2022-12-07T04:06:09;2.00;;;2.00;;
9270;SDS011;4673;53.458;9.940;2022-12-07T04:08:35;2.53;;;2.53;;
9270;SDS011;4673;53.458;9.940;2022-12-07T04:11:01;1.67;;;1.67;;
9270;SDS011;4673;53.458;9.940;2022-12-07T04:13:27;2.07;;;2.07;;
9270;SDS011;4673;53.458;9.940;2022-12-07T04:15:53;2.33;;;2.33;;
9270;SDS011;4673;53.458;9.940;2022-12-07T04:18:18;2.20;;;2.20;;
9270;SDS011;4673;53.458;9.940;2022-12-07T04:20:45;1.80;;;1.80;;
9270;SDS011;4673;53.458;9.940;2022-12-07T04:23:11;2.37;;;2.37;;
9270;SDS011;4673;53.458;9.940;2022-12-07T04:25:36;2.33;;;2.33;;
9270;SDS011;4673;53.458;9.940;2022-12-07T04:28:05;2.87;;;2.87;;
9270;SDS011;4673;53.458;9.940;2022-12-07T04:30:30;1.87;;;1.87;;
9270;SDS011;4673;53.458;9.940;2022-12-07T04:32:56;2.23;;;2.23;;
9270;SDS011;4673;53.458;9.940;2022-12-07T04:35:22;3.33;;;3.33;;
9270;SDS011;4673;53.458;9.940;2022-12-07T04:37:47;2.10;;;2.10;;
9270;SDS011;4673;53.458;9.940;2022-12-07T04:40:13;2.10;;;2.10;;
9270;SDS011;4673;53.458;9.940;2022-12-07T04:42:39;2.57;;;2.57;;
9270;SDS011;4673;53.458;9.940;2022-12-07T04:45:05;1.63;;;1.63;;
9270;SDS011;4673;53.458;9.940;2022-12-07T04:47:31;2.23;;;2.23;;
9270;SDS011;4673;53.458;9.940;2022-12-07T04:49:56;1.77;;;1.77;;
9270;SDS011;4673;53.458;9.940;2022-12-07T04:52:22;2.17;;;2.17;;
9270;SDS011;4673;53.458;9.940;2022-12-07T04:54:48;2.57;;;2.57;;
9270;SDS011;4673;53.458;9.940;2022-12-07T04:57:13;2.20;;;2.20;;
9270;SDS011;4673;53.458;9.940;2022-12-07T04:59:39;2.10;;;2.10;;
9270;SDS011;4673;53.458;9.940;2022-12-07T05:02:05;2.63;;;2.63;;
9270;SDS011;4673;53.458;9.940;2022-12-07T05:04:30;2.37;;;2.37;;
9270;SDS011;4673;53.458;9.940;2022-12-07T05:06:56;2.13;;;2.13;;
9270;SDS011;4673;53.458;9.940;2022-12-07T05:09:21;2.60;;;2.60;;
9270;SDS011;4673;53.458;9.940;2022-12-07T05:11:47;1.93;;;1.93;;
9270;SDS011;4673;53.458;9.940;2022-12-07T05:14:17;2.17;;;2.17;;
9270;SDS011;4673;53.458;9.940;2022-12-07T05:16:45;2.50;;;2.50;;
9270;SDS011;4673;53.458;9.940;2022-12-07T05:19:12;2.50;;;2.50;;
9270;SDS011;4673;53.458;9.940;2022-12-07T05:21:38;2.30;;;2.30;;
9270;SDS011;4673;53.458;9.940;2022-12-07T05:24:05;2.83;;;2.83;;
9270;SDS011;4673;53.458;9.940;2022-12-07T05:26:32;2.47;;;2.47;;
9270;SDS011;4673;53.458;9.940;2022-12-07T05:28:58;2.03;;;2.03;;
9270;SDS011;4673;53.458;9.940;2022-12-07T05:31:24;2.43;;;2.43;;
9270;SDS011;4673;53.458;9.940;2022-12-07T05:33:51;2.37;;;2.37;;
9270;SDS011;4673;53.458;9.940;2022-12-07T05:36:17;2.10;;;2.10;;
9270;SDS011;4673;53.458;9.940;2022-12-07T05:38:42;1.93;;;1.93;;
9270;SDS011;4673;53.458;9.940;2022-12-07T05:41:08;2.03;;;2.03;;
9270;SDS011;4673;53.458;9.940;2022-12-07T05:43:58;2.33;;;2.33;;
9270;SDS011;4673;53.458;9.940;2022-12-07T05:46:24;1.80;;;1.80;;
9270;SDS011;4673;53.458;9.940;2022-12-07T05:48:50;1.90;;;1.90;;
9270;SDS011;4673;53.458;9.940;2022-12-07T05:51:16;2.13;;;2.13;;
9270;SDS011;4673;53.458;9.940;2022-12-07T05:53:41;1.80;;;1.80;;
9270;SDS011;4673;53.458;9.940;2022-12-07T05:56:07;2.07;;;2.07;;
9270;SDS011;4673;53.458;9.940;2022-12-07T05:58:33;2.10;;;2.10;;
9270;SDS011;4673;53.458;9.940;2022-12-07T06:01:17;2.13;;;2.13;;
9270;SDS011;4673;53.458;9.940;2022-12-07T06:03:42;1.73;;;1.73;;
9270;SDS011;4673;53.458;9.940;2022-12-07T06:06:08;1.90;;;1.90;;
9270;SDS011;4673;53.458;9.940;2022-12-07T06:08:33;2.20;;;2.20;;
9270;SDS011;4673;53.458;9.940;2022-12-07T06:10:59;2.67;;;2.67;;
9270;SDS011;4673;53.458;9.940;2022-12-07T06:13:43;1.70;;;1.70;;
9270;SDS011;4673;53.458;9.940;2022-12-07T06:16:09;2.23;;;2.23;;
9270;SDS011;4673;53.458;9.940;2022-12-07T06:18:35;1.83;;;1.83;;
9270;SDS011;4673;53.458;9.940;2022-12-07T06:21:00;1.87;;;1.87;;
9270;SDS011;4673;53.458;9.940;2022-12-07T06:23:26;2.87;;;2.87;;
9270;SDS011;4673;53.458;9.940;2022-12-07T06:25:51;2.30;;;2.30;;
9270;SDS011;4673;53.458;9.940;2022-12-07T06:28:17;1.60;;;1.60;;
9270;SDS011;4673;53.458;9.940;2022-12-07T06:30:43;2.33;;;2.33;;
9270;SDS011;4673;53.458;9.940;2022-12-07T06:33:08;2.50;;;2.50;;
9270;SDS011;4673;53.458;9.940;2022-12-07T06:35:34;2.20;;;2.20;;
9270;SDS011;4673;53.458;9.940;2022-12-07T06:37:59;2.63;;;2.63;;
9270;SDS011;4673;53.458;9.940;2022-12-07T06:40:25;2.47;;;2.47;;
9270;SDS011;4673;53.458;9.940;2022-12-07T06:42:51;2.27;;;2.27;;
9270;SDS011;4673;53.458;9.940;2022-12-07T06:45:16;2.17;;;2.17;;
9270;SDS011;4673;53.458;9.940;2022-12-07T06:47:42;2.10;;;2.10;;
9270;SDS011;4673;53.458;9.940;2022-12-07T06:50:07;1.90;;;1.90;;
9270;SDS011;4673;53.458;9.940;2022-12-07T06:52:34;2.17;;;2.17;;
9270;SDS011;4673;53.458;9.940;2022-12-07T06:54:59;1.90;;;1.90;;
9270;SDS011;4673;53.458;9.940;2022-12-07T06:57:25;2.53;;;2.53;;
9270;SDS011;4673;53.458;9.940;2022-12-07T06:59:51;1.90;;;1.90;;
9270;SDS011;4673;53.458;9.940;2022-12-07T07:02:17;1.80;;;1.80;;
9270;SDS011;4673;53.458;9.940;2022-12-07T07:04:43;1.93;;;1.93;;
9270;SDS011;4673;53.458;9.940;2022-12-07T07:07:08;1.83;;;1.83;;
9270;SDS011;4673;53.458;9.940;2022-12-07T07:09:34;1.27;;;1.27;;
9270;SDS011;4673;53.458;9.940;2022-12-07T07:11:59;1.63;;;1.63;;
9270;SDS011;4673;53.458;9.940;2022-12-07T07:14:25;2.10;;;2.10;;
9270;SDS011;4673;53.458;9.940;2022-12-07T07:16:51;1.20;;;1.20;;
9270;SDS011;4673;53.458;9.940;2022-12-07T07:19:16;1.50;;;1.50;;
9270;SDS011;4673;53.458;9.940;2022-12-07T07:21:42;2.07;;;2.07;;
9270;SDS011;4673;53.458;9.940;2022-12-07T07:24:08;1.70;;;1.70;;
9270;SDS011;4673;53.458;9.940;2022-12-07T07:26:33;1.67;;;1.67;;
9270;SDS011;4673;53.458;9.940;2022-12-07T07:28:59;1.77;;;1.77;;
9270;SDS011;4673;53.458;9.940;2022-12-07T07:31:25;1.63;;;1.63;;
9270;SDS011;4673;53.458;9.940;2022-12-07T07:33:50;1.40;;;1.40;;
9270;SDS011;4673;53.458;9.940;2022-12-07T07:36:16;1.40;;;1.40;;
9270;SDS011;4673;53.458;9.940;2022-12-07T07:38:42;1.77;;;1.77;;
9270;SDS011;4673;53.458;9.940;2022-12-07T07:41:08;1.70;;;1.70;;
9270;SDS011;4673;53.458;9.940;2022-12-07T07:43:33;1.67;;;1.67;;
9270;SDS011;4673;53.458;9.940;2022-12-07T07:45:59;1.80;;;1.80;;
9270;SDS011;4673;53.458;9.940;2022-12-07T07:48:25;1.93;;;1.93;;
9270;SDS011;4673;53.458;9.940;2022-12-07T07:50:51;2.17;;;2.17;;
9270;SDS011;4673;53.458;9.940;2022-12-07T07:53:16;1.47;;;1.47;;
9270;SDS011;4673;53.458;9.940;2022-12-07T07:55:49;1.60;;;1.60;;
9270;SDS011;4673;53.458;9.940;2022-12-07T07:58:17;1.60;;;1.60;;
9270;SDS011;4673;53.458;9.940;2022-12-07T08:00:42;1.40;;;1.40;;
9270;SDS011;4673;53.458;9.940;2022-12-07T08:03:08;1.90;;;1.90;;
9270;SDS011;4673;53.458;9.940;2022-12-07T08:05:36;1.30;;;1.30;;
9270;SDS011;4673;53.458;9.940;2022-12-07T08:08:02;1.27;;;1.27;;
9270;SDS011;4673;53.458;9.940;2022-12-07T08:10:28;2.00;;;2.00;;
9270;SDS011;4673;53.458;9.940;2022-12-07T08:12:54;1.73;;;1.73;;
9270;SDS011;4673;53.458;9.940;2022-12-07T08:15:39;1.67;;;1.67;;
9270;SDS011;4673;53.458;9.940;2022-12-07T08:18:06;1.40;;;1.40;;
9270;SDS011;4673;53.458;9.940;2022-12-07T08:20:33;1.83;;;1.83;;
9270;SDS011;4673;53.458;9.940;2022-12-07T08:23:00;2.20;;;2.20;;
9270;SDS011;4673;53.458;9.940;2022-12-07T08:25:27;1.53;;;1.53;;
9270;SDS011;4673;53.458;9.940;2022-12-07T08:27:52;1.50;;;1.50;;
9270;SDS011;4673;53.458;9.940;2022-12-07T08:30:19;1.77;;;1.77;;
9270;SDS011;4673;53.458;9.940;2022-12-07T08:32:46;2.20;;;2.20;;
9270;SDS011;4673;53.458;9.940;2022-12-07T08:35:12;2.10;;;2.10;;
9270;SDS011;4673;53.458;9.940;2022-12-07T08:37:38;2.00;;;2.00;;
9270;SDS011;4673;53.458;9.940;2022-12-07T08:40:04;1.60;;;1.60;;
9270;SDS011;4673;53.458;9.940;2022-12-07T08:42:35;1.90;;;1.90;;
9270;SDS011;4673;53.458;9.940;2022-12-07T08:45:08;2.13;;;2.13;;
9270;SDS011;4673;53.458;9.940;2022-12-07T08:47:37;2.23;;;2.23;;
9270;SDS011;4673;53.458;9.940;2022-12-07T08:50:06;2.17;;;2.17;;
9270;SDS011;4673;53.458;9.940;2022-12-07T08:52:33;1.70;;;1.70;;
9270;SDS011;4673;53.458;9.940;2022-12-07T08:55:00;1.60;;;1.60;;
9270;SDS011;4673;53.458;9.940;2022-12-07T08:57:28;2.30;;;2.30;;
9270;SDS011;4673;53.458;9.940;2022-12-07T08:59:54;2.23;;;2.23;;
9270;SDS011;4673;53.458;9.940;2022-12-07T09:02:20;1.97;;;1.97;;
9270;SDS011;4673;53.458;9.940;2022-12-07T09:04:46;3.50;;;3.50;;
9270;SDS011;4673;53.458;9.940;2022-12-07T09:07:12;2.27;;;2.27;;
9270;SDS011;4673;53.458;9.940;2022-12-07T09:09:37;2.23;;;2.23;;
9270;SDS011;4673;53.458;9.940;2022-12-07T09:12:03;1.70;;;1.70;;
9270;SDS011;4673;53.458;9.940;2022-12-07T09:14:29;2.23;;;2.23;;
9270;SDS011;4673;53.458;9.940;2022-12-07T09:16:55;1.77;;;1.77;;
9270;SDS011;4673;53.458;9.940;2022-12-07T09:19:29;2.10;;;2.10;;
9270;SDS011;4673;53.458;9.940;2022-12-07T09:21:54;1.90;;;1.90;;
9270;SDS011;4673;53.458;9.940;2022-12-07T09:24:20;2.37;;;2.37;;
9270;SDS011;4673;53.458;9.940;2022-12-07T09:26:48;2.00;;;2.00;;
9270;SDS011;4673;53.458;9.940;2022-12-07T09:29:14;2.50;;;2.50;;
9270;SDS011;4673;53.458;9.940;2022-12-07T09:31:40;2.10;;;2.10;;
9270;SDS011;4673;53.458;9.940;2022-12-07T09:34:05;2.90;;;2.90;;
9270;SDS011;4673;53.458;9.940;2022-12-07T09:36:32;1.90;;;1.90;;
9270;SDS011;4673;53.458;9.940;2022-12-07T09:38:58;11.73;;;11.53;;
9270;SDS011;4673;53.458;9.940;2022-12-07T09:41:24;2.10;;;2.10;;
9270;SDS011;4673;53.458;9.940;2022-12-07T09:43:52;1.83;;;1.83;;
9270;SDS011;4673;53.458;9.940;2022-12-07T09:46:23;1.83;;;1.83;;
9270;SDS011;4673;53.458;9.940;2022-12-07T09:48:49;1.97;;;1.97;;
9270;SDS011;4673;53.458;9.940;2022-12-07T09:51:19;1.70;;;1.70;;
9270;SDS011;4673;53.458;9.940;2022-12-07T09:53:47;1.70;;;1.70;;
9270;SDS011;4673;53.458;9.940;2022-12-07T09:56:14;1.70;;;1.70;;
9270;SDS011;4673;53.458;9.940;2022-12-07T09:58:41;1.50;;;1.50;;
9270;SDS011;4673;53.458;9.940;2022-12-07T10:03:37;1.00;;;1.00;;
9270;SDS011;4673;53.458;9.940;2022-12-07T10:06:05;1.13;;;1.13;;
9270;SDS011;4673;53.458;9.940;2022-12-07T10:08:31;0.90;;;0.90;;
9270;SDS011;4673;53.458;9.940;2022-12-07T10:10:58;1.60;;;1.60;;
9270;SDS011;4673;53.458;9.940;2022-12-07T10:13:35;0.83;;;0.83;;
9270;SDS011;4673;53.458;9.940;2022-12-07T10:16:06;1.70;;;1.70;;
9270;SDS011;4673;53.458;9.940;2022-12-07T10:18:49;1.27;;;1.27;;
9270;SDS011;4673;53.458;9.940;2022-12-07T10:21:20;0.80;;;0.80;;
9270;SDS011;4673;53.458;9.940;2022-12-07T10:24:00;0.50;;;0.50;;
9270;SDS011;4673;53.458;9.940;2022-12-07T10:31:48;1.03;;;1.03;;
9270;SDS011;4673;53.458;9.940;2022-12-07T10:34:38;0.50;;;0.50;;
9270;SDS011;4673;53.458;9.940;2022-12-07T10:39:51;0.80;;;0.80;;
9270;SDS011;4673;53.458;9.940;2022-12-07T10:42:22;0.80;;;0.80;;
9270;SDS011;4673;53.458;9.940;2022-12-07T10:47:47;0.90;;;0.90;;
9270;SDS011;4673;53.458;9.940;2022-12-07T10:58:55;0.80;;;0.80;;
9270;SDS011;4673;53.458;9.940;2022-12-07T11:01:45;0.90;;;0.90;;
9270;SDS011;4673;53.458;9.940;2022-12-07T11:07:11;0.90;;;0.90;;
9270;SDS011;4673;53.458;9.940;2022-12-07T11:10:02;0.80;;;0.80;;
9270;SDS011;4673;53.458;9.940;2022-12-07T11:17:49;1.23;;;1.23;;
9270;SDS011;4673;53.458;9.940;2022-12-07T11:36:48;1.00;;;1.00;;
9270;SDS011;4673;53.458;9.940;2022-12-07T11:39:51;1.10;;;1.10;;
9270;SDS011;4673;53.458;9.940;2022-12-07T11:42:21;1.43;;;1.43;;
9270;SDS011;4673;53.458;9.940;2022-12-07T11:44:52;1.00;;;1.00;;
9270;SDS011;4673;53.458;9.940;2022-12-07T11:47:27;0.90;;;0.90;;
9270;SDS011;4673;53.458;9.940;2022-12-07T11:52:49;1.27;;;1.27;;
9270;SDS011;4673;53.458;9.940;2022-12-07T11:58:14;1.10;;;1.10;;
9270;SDS011;4673;53.458;9.940;2022-12-07T12:01:07;1.40;;;1.40;;
9270;SDS011;4673;53.458;9.940;2022-12-07T12:03:53;1.40;;;1.40;;
9270;SDS011;4673;53.458;9.940;2022-12-07T12:06:37;1.20;;;1.20;;
9270;SDS011;4673;53.458;9.940;2022-12-07T12:17:45;2.07;;;2.07;;
9270;SDS011;4673;53.458;9.940;2022-12-07T12:22:43;1.80;;;1.80;;
9270;SDS011;4673;53.458;9.940;2022-12-07T12:25:21;1.47;;;1.47;;
9270;SDS011;4673;53.458;9.940;2022-12-07T12:27:53;1.77;;;1.77;;
9270;SDS011;4673;53.458;9.940;2022-12-07T12:30:30;1.27;;;1.27;;
9270;SDS011;4673;53.458;9.940;2022-12-07T12:33:31;1.20;;;1.20;;
9270;SDS011;4673;53.458;9.940;2022-12-07T12:42:10;2.00;;;2.00;;
9270;SDS011;4673;53.458;9.940;2022-12-07T12:54:15;1.30;;;1.30;;
9270;SDS011;4673;53.458;9.940;2022-12-07T13:02:22;1.57;;;1.57;;
9270;SDS011;4673;53.458;9.940;2022-12-07T13:13:01;1.50;;;1.50;;
9270;SDS011;4673;53.458;9.940;2022-12-07T13:15:31;2.20;;;2.20;;
9270;SDS011;4673;53.458;9.940;2022-12-07T13:23:27;1.50;;;1.50;;
9270;SDS011;4673;53.458;9.940;2022-12-07T13:31:42;2.67;;;2.67;;
9270;SDS011;4673;53.458;9.940;2022-12-07T13:37:01;1.70;;;1.70;;
9270;SDS011;4673;53.458;9.940;2022-12-07T13:39:44;1.50;;;1.50;;
9270;SDS011;4673;53.458;9.940;2022-12-07T13:42:18;1.43;;;1.43;;
9270;SDS011;4673;53.458;9.940;2022-12-07T13:44:55;1.30;;;1.30;;
9270;SDS011;4673;53.458;9.940;2022-12-07T13:47:26;1.53;;;1.53;;
9270;SDS011;4673;53.458;9.940;2022-12-07T13:50:20;1.90;;;1.90;;
9270;SDS011;4673;53.458;9.940;2022-12-07T13:53:00;1.40;;;1.40;;
9270;SDS011;4673;53.458;9.940;2022-12-07T13:55:26;1.80;;;1.80;;
9270;SDS011;4673;53.458;9.940;2022-12-07T13:57:54;1.50;;;1.50;;
9270;SDS011;4673;53.458;9.940;2022-12-07T14:00:21;1.57;;;1.57;;
9270;SDS011;4673;53.458;9.940;2022-12-07T14:03:00;1.40;;;1.40;;
9270;SDS011;4673;53.458;9.940;2022-12-07T14:05:36;1.43;;;1.43;;
9270;SDS011;4673;53.458;9.940;2022-12-07T14:10:30;1.33;;;1.33;;
9270;SDS011;4673;53.458;9.940;2022-12-07T14:13:01;1.70;;;1.70;;
9270;SDS011;4673;53.458;9.940;2022-12-07T14:15:29;1.50;;;1.50;;
9270;SDS011;4673;53.458;9.940;2022-12-07T14:17:57;1.93;;;1.93;;
9270;SDS011;4673;53.458;9.940;2022-12-07T14:20:35;1.17;;;1.17;;
9270;SDS011;4673;53.458;9.940;2022-12-07T14:23:01;1.67;;;1.67;;
9270;SDS011;4673;53.458;9.940;2022-12-07T14:25:44;1.73;;;1.73;;
9270;SDS011;4673;53.458;9.940;2022-12-07T14:28:31;1.80;;;1.80;;
9270;SDS011;4673;53.458;9.940;2022-12-07T14:30:59;1.80;;;1.80;;
9270;SDS011;4673;53.458;9.940;2022-12-07T14:33:25;1.60;;;1.60;;
9270;SDS011;4673;53.458;9.940;2022-12-07T14:35:52;1.90;;;1.90;;
9270;SDS011;4673;53.458;9.940;2022-12-07T14:38:20;1.77;;;1.77;;
9270;SDS011;4673;53.458;9.940;2022-12-07T14:40:47;1.30;;;1.30;;
9270;SDS011;4673;53.458;9.940;2022-12-07T14:43:17;1.43;;;1.43;;
9270;SDS011;4673;53.458;9.940;2022-12-07T14:45:43;1.50;;;1.50;;
9270;SDS011;4673;53.458;9.940;2022-12-07T14:48:15;1.70;;;1.70;;
9270;SDS011;4673;53.458;9.940;2022-12-07T14:50:44;1.13;;;1.13;;
9270;SDS011;4673;53.458;9.940;2022-12-07T14:53:15;1.43;;;1.43;;
9270;SDS011;4673;53.458;9.940;2022-12-07T14:55:43;1.70;;;1.70;;
9270;SDS011;4673;53.458;9.940;2022-12-07T14:58:18;1.53;;;1.53;;
9270;SDS011;4673;53.458;9.940;2022-12-07T15:00:45;1.70;;;1.70;;
9270;SDS011;4673;53.458;9.940;2022-12-07T15:03:12;1.30;;;1.30;;
9270;SDS011;4673;53.458;9.940;2022-12-07T15:05:38;1.20;;;1.20;;
9270;SDS011;4673;53.458;9.940;2022-12-07T15:08:04;1.23;;;1.23;;
9270;SDS011;4673;53.458;9.940;2022-12-07T15:10:32;1.57;;;1.57;;
9270;SDS011;4673;53.458;9.940;2022-12-07T15:12:59;1.80;;;1.80;;
9270;SDS011;4673;53.458;9.940;2022-12-07T15:15:45;1.43;;;1.43;;
9270;SDS011;4673;53.458;9.940;2022-12-07T15:18:14;1.53;;;1.53;;
9270;SDS011;4673;53.458;9.940;2022-12-07T15:20:40;2.43;;;2.43;;
9270;SDS011;4673;53.458;9.940;2022-12-07T15:23:06;2.30;;;2.30;;
9270;SDS011;4673;53.458;9.940;2022-12-07T15:25:32;2.60;;;2.60;;
9270;SDS011;4673;53.458;9.940;2022-12-07T15:27:58;2.20;;;2.20;;
9270;SDS011;4673;53.458;9.940;2022-12-07T15:30:25;2.47;;;2.47;;
9270;SDS011;4673;53.458;9.940;2022-12-07T15:32:51;2.30;;;2.30;;
9270;SDS011;4673;53.458;9.940;2022-12-07T15:35:17;1.80;;;1.80;;
9270;SDS011;4673;53.458;9.940;2022-12-07T15:37:44;1.87;;;1.87;;
9270;SDS011;4673;53.458;9.940;2022-12-07T15:40:10;2.27;;;2.27;;
9270;SDS011;4673;53.458;9.940;2022-12-07T15:42:36;1.73;;;1.73;;
9270;SDS011;4673;53.458;9.940;2022-12-07T15:45:02;1.50;;;1.50;;
9270;SDS011;4673;53.458;9.940;2022-12-07T15:47:50;1.80;;;1.80;;
9270;SDS011;4673;53.458;9.940;2022-12-07T15:50:20;2.00;;;2.00;;
9270;SDS011;4673;53.458;9.940;2022-12-07T15:52:46;1.50;;;1.50;;
9270;SDS011;4673;53.458;9.940;2022-12-07T15:55:12;1.60;;;1.60;;
9270;SDS011;4673;53.458;9.940;2022-12-07T15:57:38;1.87;;;1.87;;
9270;SDS011;4673;53.458;9.940;2022-12-07T16:00:04;1.97;;;1.97;;
9270;SDS011;4673;53.458;9.940;2022-12-07T16:02:32;1.57;;;1.57;;
9270;SDS011;4673;53.458;9.940;2022-12-07T16:04:57;1.80;;;1.80;;
9270;SDS011;4673;53.458;9.940;2022-12-07T16:07:23;2.33;;;2.33;;
9270;SDS011;4673;53.458;9.940;2022-12-07T16:09:49;2.97;;;2.97;;
9270;SDS011;4673;53.458;9.940;2022-12-07T16:12:15;2.13;;;2.13;;
9270;SDS011;4673;53.458;9.940;2022-12-07T16:14:41;2.60;;;2.60;;
9270;SDS011;4673;53.458;9.940;2022-12-07T16:17:07;2.33;;;2.33;;
9270;SDS011;4673;53.458;9.940;2022-12-07T16:19:33;2.70;;;2.70;;
9270;SDS011;4673;53.458;9.940;2022-12-07T16:22:00;1.60;;;1.60;;
9270;SDS011;4673;53.458;9.940;2022-12-07T16:24:26;1.57;;;1.57;;
9270;SDS011;4673;53.458;9.940;2022-12-07T16:26:52;2.50;;;2.50;;
9270;SDS011;4673;53.458;9.940;2022-12-07T16:29:19;2.97;;;2.97;;
9270;SDS011;4673;53.458;9.940;2022-12-07T16:31:46;2.53;;;2.53;;
9270;SDS011;4673;53.458;9.940;2022-12-07T16:34:12;2.93;;;2.93;;
9270;SDS011;4673;53.458;9.940;2022-12-07T16:36:38;3.37;;;3.37;;
9270;SDS011;4673;53.458;9.940;2022-12-07T16:39:04;2.87;;;2.87;;
9270;SDS011;4673;53.458;9.940;2022-12-07T16:41:30;3.00;;;3.00;;
9270;SDS011;4673;53.458;9.940;2022-12-07T16:43:56;2.80;;;2.80;;
9270;SDS011;4673;53.458;9.940;2022-12-07T16:46:22;3.27;;;3.27;;
9270;SDS011;4673;53.458;9.940;2022-12-07T16:48:47;3.20;;;3.20;;
9270;SDS011;4673;53.458;9.940;2022-12-07T16:51:14;2.50;;;2.50;;
9270;SDS011;4673;53.458;9.940;2022-12-07T16:53:40;2.20;;;2.20;;
9270;SDS011;4673;53.458;9.940;2022-12-07T16:56:11;2.53;;;2.53;;
9270;SDS011;4673;53.458;9.940;2022-12-07T16:58:38;2.13;;;2.13;;
9270;SDS011;4673;53.458;9.940;2022-12-07T17:01:11;2.40;;;2.40;;
9270;SDS011;4673;53.458;9.940;2022-12-07T17:03:41;3.27;;;3.27;;
9270;SDS011;4673;53.458;9.940;2022-12-07T17:06:11;2.80;;;2.80;;
9270;SDS011;4673;53.458;9.940;2022-12-07T17:08:42;4.87;;;4.87;;
9270;SDS011;4673;53.458;9.940;2022-12-07T17:11:15;3.00;;;3.00;;
9270;SDS011;4673;53.458;9.940;2022-12-07T17:13:45;3.83;;;3.83;;
9270;SDS011;4673;53.458;9.940;2022-12-07T17:16:30;3.10;;;3.10;;
9270;SDS011;4673;53.458;9.940;2022-12-07T17:18:56;2.70;;;2.70;;
9270;SDS011;4673;53.458;9.940;2022-12-07T17:21:22;5.93;;;5.93;;
9270;SDS011;4673;53.458;9.940;2022-12-07T17:23:48;3.60;;;3.60;;
9270;SDS011;4673;53.458;9.940;2022-12-07T17:26:19;3.23;;;3.23;;
9270;SDS011;4673;53.458;9.940;2022-12-07T17:28:49;3.53;;;3.53;;
9270;SDS011;4673;53.458;9.940;2022-12-07T17:31:17;3.23;;;3.23;;
9270;SDS011;4673;53.458;9.940;2022-12-07T17:33:44;3.07;;;3.07;;
9270;SDS011;4673;53.458;9.940;2022-12-07T17:38:43;3.47;;;3.47;;
9270;SDS011;4673;53.458;9.940;2022-12-07T17:41:16;4.03;;;4.03;;
9270;SDS011;4673;53.458;9.940;2022-12-07T17:44:03;3.20;;;3.20;;
9270;SDS011;4673;53.458;9.940;2022-12-07T17:46:31;3.30;;;3.30;;
9270;SDS011;4673;53.458;9.940;2022-12-07T17:48:57;3.40;;;3.40;;
9270;SDS011;4673;53.458;9.940;2022-12-07T17:51:24;3.93;;;3.93;;
9270;SDS011;4673;53.458;9.940;2022-12-07T17:54:08;3.20;;;3.20;;
9270;SDS011;4673;53.458;9.940;2022-12-07T17:56:35;3.63;;;3.63;;
9270;SDS011;4673;53.458;9.940;2022-12-07T17:59:01;4.50;;;4.50;;
9270;SDS011;4673;53.458;9.940;2022-12-07T18:01:27;5.97;;;5.97;;
9270;SDS011;4673;53.458;9.940;2022-12-07T18:03:53;5.50;;;5.50;;
9270;SDS011;4673;53.458;9.940;2022-12-07T18:06:19;5.00;;;5.00;;
9270;SDS011;4673;53.458;9.940;2022-12-07T18:08:44;5.07;;;5.07;;
9270;SDS011;4673;53.458;9.940;2022-12-07T18:11:10;4.43;;;4.43;;
9270;SDS011;4673;53.458;9.940;2022-12-07T18:13:36;6.97;;;6.97;;
9270;SDS011;4673;53.458;9.940;2022-12-07T18:16:35;7.03;;;7.03;;
9270;SDS011;4673;53.458;9.940;2022-12-07T18:18:58;6.87;;;6.87;;
9270;SDS011;4673;53.458;9.940;2022-12-07T18:21:25;6.80;;;6.80;;
9270;SDS011;4673;53.458;9.940;2022-12-07T18:23:53;6.90;;;6.90;;
9270;SDS011;4673;53.458;9.940;2022-12-07T18:26:21;6.33;;;6.33;;
9270;SDS011;4673;53.458;9.940;2022-12-07T18:28:48;5.53;;;5.53;;
9270;SDS011;4673;53.458;9.940;2022-12-07T18:31:14;6.43;;;6.43;;
9270;SDS011;4673;53.458;9.940;2022-12-07T18:33:40;4.83;;;4.83;;
9270;SDS011;4673;53.458;9.940;2022-12-07T18:36:07;4.93;;;4.93;;
9270;SDS011;4673;53.458;9.940;2022-12-07T18:38:34;5.60;;;5.60;;
9270;SDS011;4673;53.458;9.940;2022-12-07T18:41:00;4.53;;;4.53;;
9270;SDS011;4673;53.458;9.940;2022-12-07T18:43:27;3.90;;;3.90;;
9270;SDS011;4673;53.458;9.940;2022-12-07T18:45:53;4.93;;;4.93;;
9270;SDS011;4673;53.458;9.940;2022-12-07T18:48:19;4.60;;;4.60;;
9270;SDS011;4673;53.458;9.940;2022-12-07T18:50:46;4.60;;;4.60;;
9270;SDS011;4673;53.458;9.940;2022-12-07T18:53:22;5.03;;;5.03;;
9270;SDS011;4673;53.458;9.940;2022-12-07T18:55:48;4.23;;;4.23;;
9270;SDS011;4673;53.458;9.940;2022-12-07T18:58:14;3.57;;;3.57;;
9270;SDS011;4673;53.458;9.940;2022-12-07T19:00:39;4.80;;;4.80;;
9270;SDS011;4673;53.458;9.940;2022-12-07T19:03:05;4.30;;;4.30;;
9270;SDS011;4673;53.458;9.940;2022-12-07T19:05:30;4.30;;;4.30;;
9270;SDS011;4673;53.458;9.940;2022-12-07T19:07:56;4.20;;;4.20;;
9270;SDS011;4673;53.458;9.940;2022-12-07T19:10:22;4.00;;;4.00;;
9270;SDS011;4673;53.458;9.940;2022-12-07T19:12:47;3.80;;;3.80;;
9270;SDS011;4673;53.458;9.940;2022-12-07T19:15:13;3.03;;;3.03;;
9270;SDS011;4673;53.458;9.940;2022-12-07T19:17:40;2.47;;;2.47;;
9270;SDS011;4673;53.458;9.940;2022-12-07T19:20:08;2.13;;;2.13;;
9270;SDS011;4673;53.458;9.940;2022-12-07T19:22:38;2.90;;;2.90;;
9270;SDS011;4673;53.458;9.940;2022-12-07T19:25:03;3.10;;;3.10;;